createdAt,value
2022-12-28T00:04:02.955Z,651.66
2022-12-28T00:14:41.469Z,651.66
2022-12-28T00:30:38.883Z,651.66
2022-12-28T00:41:17.761Z,651.66
2022-12-28T00:46:36.737Z,651.66
2022-12-28T00:57:16.140Z,651.66
2022-12-28T01:13:14.031Z,651.66
2022-12-28T01:23:53.376Z,651.66
2022-12-28T01:29:12.909Z,0
2022-12-28T01:39:50.779Z,651.66
2022-12-28T01:55:48.272Z,0
2022-12-28T02:11:45.453Z,0
2022-12-28T02:22:23.682Z,0
2022-12-28T02:27:42.890Z,0
2022-12-28T02:38:20.617Z,0
2022-12-28T02:48:59.833Z,0
2022-12-28T02:59:38.034Z,0
2022-12-28T03:04:57.116Z,0
2022-12-28T03:15:35.908Z,0
2022-12-28T03:26:14.765Z,0
2022-12-28T03:31:33.934Z,0
2022-12-28T03:42:11.744Z,0
2022-12-28T03:47:40.654Z,0
2022-12-28T03:58:09.967Z,0
2022-12-28T04:08:47.909Z,0
2022-12-28T04:14:10.471Z,0
2022-12-28T04:24:44.954Z,0
2022-12-28T04:30:03.836Z,0
2022-12-28T04:40:43.206Z,0
2022-12-28T04:46:02.315Z,0
2022-12-28T04:56:41.187Z,0
2022-12-28T05:07:20.299Z,0
2022-12-28T05:12:39.400Z,0
2022-12-28T05:17:58.269Z,0
2022-12-28T05:23:17.715Z,0
2022-12-28T05:39:16.045Z,0
2022-12-28T05:55:13.364Z,0
2022-12-28T06:05:51.289Z,0
2022-12-28T06:21:49.282Z,0
2022-12-28T06:37:48.265Z,0
2022-12-28T06:48:27.485Z,0
2022-12-28T07:04:25.642Z,1
2022-12-28T07:20:24.324Z,27.05
2022-12-28T07:31:03.482Z,31.09
2022-12-28T07:36:21.254Z,32.34
2022-12-28T07:47:00.038Z,39.4
2022-12-28T07:57:37.821Z,48.69
2022-12-28T08:02:57.262Z,56.25
2022-12-28T08:13:35.722Z,62.89
2022-12-28T08:18:54.719Z,60.64
2022-12-28T08:24:13.844Z,68.64
2022-12-28T08:29:33.537Z,75.54
2022-12-28T08:45:32.101Z,86.64
2022-12-28T09:01:30.801Z,113.14
2022-12-28T09:12:09.596Z,131
2022-12-28T09:17:28.663Z,137.1
2022-12-28T09:28:07.257Z,158.04
2022-12-28T09:38:46.283Z,159.45
2022-12-28T09:49:25.359Z,202.29
2022-12-28T09:54:44.206Z,195.59
2022-12-28T10:05:23.069Z,167.89
2022-12-28T10:10:46.771Z,157.64
2022-12-28T10:21:20.297Z,150.75
2022-12-28T10:31:58.688Z,287.45
2022-12-28T10:37:18.387Z,198.59
2022-12-28T10:47:56.865Z,205.39
2022-12-28T10:53:16.312Z,166.64
2022-12-28T11:03:54.527Z,222.7
2022-12-28T11:19:52.779Z,336.84
2022-12-28T11:30:31.544Z,406.4
2022-12-28T11:35:50.280Z,211.45
2022-12-28T11:46:28.498Z,352.25
2022-12-28T12:02:26.786Z,331.34
2022-12-28T12:09:00.966Z,233.09
2022-12-28T12:13:05.977Z,262.34
2022-12-28T12:29:03.273Z,154.45
2022-12-28T12:39:39.707Z,334.04
2022-12-28T12:44:59.163Z,275.7
2022-12-28T12:55:38.119Z,196.2
2022-12-28T13:00:57.239Z,188.89
2022-12-28T13:11:35.305Z,90.69
2022-12-28T13:27:32.900Z,88.54
2022-12-28T13:38:10.147Z,86.85
2022-12-28T13:43:29.285Z,147.04
2022-12-28T13:48:48.931Z,192.89
2022-12-28T13:54:08.093Z,95.04
2022-12-28T14:10:06.002Z,69.75
2022-12-28T14:26:04.658Z,64.55
2022-12-28T14:32:42.790Z,62.8
2022-12-28T14:36:55.485Z,57.8
2022-12-28T14:54:35.138Z,45.54
2022-12-28T15:05:13.874Z,42.2
2022-12-28T15:10:33.288Z,40.5
2022-12-28T15:21:10.773Z,28.2
2022-12-28T15:26:29.968Z,25.05
2022-12-28T15:31:49.596Z,13
2022-12-28T15:37:08.545Z,4
2022-12-28T15:42:28.741Z,1
2022-12-28T15:53:07.293Z,0
2022-12-28T16:03:44.342Z,0
2022-12-28T16:30:21.879Z,0
2022-12-28T16:41:00.141Z,0
2022-12-28T16:46:19.231Z,0
2022-12-28T16:51:38.493Z,0
2022-12-28T16:56:57.623Z,0
2022-12-28T17:12:55.770Z,0
2022-12-28T17:23:34.064Z,0
2022-12-28T17:28:53.679Z,0
2022-12-28T17:34:12.794Z,0
2022-12-28T17:39:36.110Z,0
2022-12-28T17:55:29.405Z,0
2022-12-28T18:11:27.825Z,0
2022-12-28T18:22:06.597Z,0
2022-12-28T18:27:25.991Z,0
2022-12-28T18:38:05.131Z,0
2022-12-28T18:54:01.935Z,0
2022-12-28T19:04:40.807Z,0
2022-12-28T19:09:59.575Z,0
2022-12-28T19:20:37.418Z,0
2022-12-28T19:25:56.595Z,0
2022-12-28T19:36:35.097Z,0
2022-12-28T19:52:33.544Z,0
2022-12-28T20:03:11.268Z,0
2022-12-28T20:08:30.716Z,0
2022-12-28T20:19:09.021Z,0
2022-12-28T20:35:05.830Z,0
2022-12-28T20:45:46.156Z,0
2022-12-28T21:01:41.841Z,0
2022-12-28T21:07:01.078Z,0
2022-12-28T21:12:21.150Z,0
2022-12-28T21:17:40.184Z,0
2022-12-28T21:28:18.332Z,0
2022-12-28T21:33:38.110Z,0
2022-12-28T21:38:57.414Z,0
2022-12-28T21:44:16.478Z,0
2022-12-28T22:00:14.317Z,0
2022-12-28T22:16:12.125Z,0
2022-12-28T22:26:51.379Z,0
2022-12-28T22:32:11.038Z,0
2022-12-28T22:42:48.702Z,0
2022-12-28T22:58:46.392Z,0
2022-12-28T23:20:01.900Z,0
2022-12-28T23:25:21.302Z,0
2022-12-28T23:30:40.850Z,0
2022-12-28T23:36:00.170Z,0
2022-12-28T23:41:19.415Z,0
2022-12-28T23:46:38.302Z,0
2022-12-28T23:51:57.980Z,0
